Time;durP1;ratioP1;P1;durP2;ratioP2;P2;SDS_P1;SDS_P2;PMS_P1;PMS_P2;Temp;Humidity;BMP_temperature;BMP_pressure;BME280_temperature;BME280_humidity;BME280_pressure;Samples;Min_cycle;Max_cycle;Signal;HPM_P1;HPM_P2
2022/08/23 00:01:12;;;;;;;13.18;6.18;;;;;;;;;;4973032;28;20124;-85
2022/08/23 00:03:38;;;;;;;10.85;5.97;;;;;;;;;;5004131;28;20050;-84
2022/08/23 00:06:04;;;;;;;7.95;5.65;;;;;;;;;;4973941;28;20088;-84
2022/08/23 00:08:30;;;;;;;11.68;7.05;;;;;;;;;;4973731;28;20042;-84
2022/08/23 00:10:57;;;;;;;11.38;7.10;;;;;;;;;;4971475;28;20070;-84
2022/08/23 00:13:23;;;;;;;11.10;6.65;;;;;;;;;;4974580;28;20078;-84
2022/08/23 00:15:49;;;;;;;11.45;7.32;;;;;;;;;;4971072;28;20070;-84
2022/08/23 00:18:15;;;;;;;9.32;6.55;;;;;;;;;;4972536;28;20043;-84
2022/08/23 00:20:42;;;;;;;12.15;6.43;;;;;;;;;;4972836;28;20054;-84
2022/08/23 00:23:08;;;;;;;11.18;7.35;;;;;;;;;;4973075;28;20047;-84
2022/08/23 00:25:34;;;;;;;9.32;6.95;;;;;;;;;;4971406;28;20042;-84
2022/08/23 00:28:00;;;;;;;17.58;7.97;;;;;;;;;;4973215;28;20082;-84
2022/08/23 00:30:27;;;;;;;13.63;7.45;;;;;;;;;;4973594;28;20521;-84
2022/08/23 00:32:53;;;;;;;16.60;7.60;;;;;;;;;;4973318;28;20080;-84
2022/08/23 00:35:20;;;;;;;10.63;6.95;;;;;;;;;;5005173;28;20055;-84
2022/08/23 00:37:46;;;;;;;15.13;8.10;;;;;;;;;;4970818;28;20043;-84
2022/08/23 00:40:13;;;;;;;10.88;7.38;;;;;;;;;;5004992;28;20452;-84
2022/08/23 00:48:46;;;;;;;10.80;6.85;;;;;;;;;;4954177;28;20451;-84
2022/08/23 00:51:18;;;;;;;8.48;5.60;;;;;;;;;;4954070;28;20047;-84
2022/08/23 00:53:47;;;;;;;9.80;5.43;;;;;;;;;;4971435;28;20055;-84
2022/08/23 00:56:15;;;;;;;7.03;4.40;;;;;;;;;;4971567;28;20134;-84
2022/08/23 00:58:41;;;;;;;6.60;4.30;;;;;;;;;;5004446;28;20050;-84
2022/08/23 01:01:07;;;;;;;9.55;5.22;;;;;;;;;;4972973;28;20057;-84
2022/08/23 01:03:36;;;;;;;7.72;4.60;;;;;;;;;;4972710;28;20400;-84
2022/08/23 01:06:08;;;;;;;8.52;6.15;;;;;;;;;;4972133;28;20054;-84
2022/08/23 01:08:34;;;;;;;8.07;5.30;;;;;;;;;;4971789;28;20535;-84
2022/08/23 01:11:10;;;;;;;7.03;5.07;;;;;;;;;;4971128;28;20061;-84
2022/08/23 01:13:55;;;;;;;8.45;5.25;;;;;;;;;;4972982;28;20066;-84
2022/08/23 01:16:25;;;;;;;5.90;3.80;;;;;;;;;;4972132;28;20043;-84
2022/08/23 01:18:52;;;;;;;5.35;3.97;;;;;;;;;;4972777;28;20134;-84
2022/08/23 01:21:24;;;;;;;10.73;7.10;;;;;;;;;;4972476;28;20045;-84
2022/08/23 01:23:58;;;;;;;13.27;8.02;;;;;;;;;;5003997;28;20043;-84
2022/08/23 01:26:25;;;;;;;12.80;8.60;;;;;;;;;;4970006;28;20046;-84
2022/08/23 01:28:51;;;;;;;14.15;8.70;;;;;;;;;;4971961;28;20092;-84
2022/08/23 01:31:18;;;;;;;15.45;9.20;;;;;;;;;;4972401;28;20052;-84
2022/08/23 01:33:45;;;;;;;14.93;8.90;;;;;;;;;;5003752;28;20125;-84
2022/08/23 01:36:13;;;;;;;11.95;8.73;;;;;;;;;;4971471;28;20051;-84
2022/08/23 01:38:39;;;;;;;14.10;9.48;;;;;;;;;;5004304;28;20503;-84
2022/08/23 01:41:08;;;;;;;12.35;8.68;;;;;;;;;;4968916;28;20046;-84
2022/08/23 01:43:35;;;;;;;12.38;9.55;;;;;;;;;;4970897;28;20042;-84
2022/08/23 01:46:11;;;;;;;11.93;8.82;;;;;;;;;;4972615;28;20051;-84
2022/08/23 01:48:37;;;;;;;15.07;9.77;;;;;;;;;;5004076;28;20419;-84
2022/08/23 01:51:04;;;;;;;12.68;9.90;;;;;;;;;;4972535;28;20043;-84
2022/08/23 01:53:30;;;;;;;13.80;9.07;;;;;;;;;;4971548;28;20101;-84
2022/08/23 01:55:56;;;;;;;12.20;8.60;;;;;;;;;;4970827;28;20412;-84
2022/08/23 01:58:22;;;;;;;12.38;9.15;;;;;;;;;;4971826;28;20097;-84
2022/08/23 02:00:48;;;;;;;12.70;9.75;;;;;;;;;;4971693;28;20038;-84
2022/08/23 02:03:16;;;;;;;14.25;10.45;;;;;;;;;;4971625;28;20118;-84
2022/08/23 02:05:44;;;;;;;14.88;9.88;;;;;;;;;;4969118;28;20058;-84
2022/08/23 02:10:55;;;;;;;13.82;9.75;;;;;;;;;;4969444;28;20046;-84
2022/08/23 02:13:21;;;;;;;20.48;10.95;;;;;;;;;;4972080;28;20043;-84
2022/08/23 02:15:50;;;;;;;15.02;9.93;;;;;;;;;;4971945;28;20043;-84
2022/08/23 02:18:18;;;;;;;16.50;11.23;;;;;;;;;;4971511;28;20133;-84
2022/08/23 02:20:48;;;;;;;16.33;11.50;;;;;;;;;;5003255;28;20061;-84
2022/08/23 02:23:15;;;;;;;15.70;10.60;;;;;;;;;;4970832;28;20047;-84
2022/08/23 02:25:42;;;;;;;15.13;10.82;;;;;;;;;;4969445;28;20049;-84
2022/08/23 02:28:08;;;;;;;18.20;11.68;;;;;;;;;;4970482;28;20047;-84
2022/08/23 02:30:34;;;;;;;15.27;10.63;;;;;;;;;;5003205;28;20057;-84
2022/08/23 02:33:01;;;;;;;16.98;10.90;;;;;;;;;;5002721;28;20046;-84
2022/08/23 02:35:27;;;;;;;16.83;11.23;;;;;;;;;;4970840;28;20043;-84
2022/08/23 02:37:53;;;;;;;16.80;10.32;;;;;;;;;;4968445;28;20118;-84
2022/08/23 02:40:19;;;;;;;15.27;11.30;;;;;;;;;;4971512;28;20054;-84
2022/08/23 02:42:46;;;;;;;15.02;11.63;;;;;;;;;;5002526;28;20388;-84
2022/08/23 02:45:12;;;;;;;15.77;11.52;;;;;;;;;;5000857;28;20066;-84
2022/08/23 02:47:38;;;;;;;18.35;12.55;;;;;;;;;;4970518;28;20058;-84
2022/08/23 02:50:04;;;;;;;15.75;12.02;;;;;;;;;;4971972;28;20047;-84
2022/08/23 02:52:30;;;;;;;14.50;11.55;;;;;;;;;;4971649;28;20046;-84
2022/08/23 02:54:56;;;;;;;17.65;12.50;;;;;;;;;;4971549;28;20054;-84
2022/08/23 02:57:22;;;;;;;17.27;12.13;;;;;;;;;;4971612;28;20373;-84
2022/08/23 02:59:49;;;;;;;17.17;12.10;;;;;;;;;;4970839;28;20583;-84
2022/08/23 03:02:15;;;;;;;16.67;12.20;;;;;;;;;;4970678;28;20041;-84
2022/08/23 03:04:41;;;;;;;18.33;12.60;;;;;;;;;;4970667;28;20139;-84
2022/08/23 03:07:07;;;;;;;14.85;11.35;;;;;;;;;;4971809;28;20041;-84
2022/08/23 03:09:33;;;;;;;13.75;11.20;;;;;;;;;;4971128;28;20490;-84
2022/08/23 03:11:59;;;;;;;16.90;11.85;;;;;;;;;;4971142;28;20074;-84
2022/08/23 03:14:26;;;;;;;17.35;12.27;;;;;;;;;;4971216;28;20508;-84
2022/08/23 03:16:52;;;;;;;19.70;13.23;;;;;;;;;;4970728;28;20459;-84
2022/08/23 03:19:19;;;;;;;16.45;12.05;;;;;;;;;;4972099;28;20053;-84
2022/08/23 03:21:45;;;;;;;15.27;11.77;;;;;;;;;;5006760;28;20511;-84
2022/08/23 03:24:11;;;;;;;14.45;11.05;;;;;;;;;;4974693;28;20085;-84
2022/08/23 03:26:37;;;;;;;9.20;8.30;;;;;;;;;;5006165;28;20416;-84
2022/08/23 03:29:04;;;;;;;11.13;8.52;;;;;;;;;;4974607;28;20043;-84
2022/08/23 03:31:30;;;;;;;8.90;7.47;;;;;;;;;;4974302;28;20047;-84
2022/08/23 03:33:56;;;;;;;13.10;7.80;;;;;;;;;;4974357;28;20042;-84
2022/08/23 03:36:22;;;;;;;9.02;7.43;;;;;;;;;;5006635;28;20086;-84
2022/08/23 03:38:48;;;;;;;6.97;5.90;;;;;;;;;;4974712;28;20073;-84
2022/08/23 03:41:14;;;;;;;10.50;6.35;;;;;;;;;;4974676;28;20066;-84
2022/08/23 03:43:41;;;;;;;17.13;12.68;;;;;;;;;;4974460;28;20073;-84
2022/08/23 03:46:07;;;;;;;15.20;11.00;;;;;;;;;;4973782;28;20065;-84
2022/08/23 03:48:33;;;;;;;19.13;13.55;;;;;;;;;;4974201;28;20515;-84
2022/08/23 03:50:59;;;;;;;17.55;13.05;;;;;;;;;;5006048;28;20054;-84
2022/08/23 03:53:25;;;;;;;16.05;12.95;;;;;;;;;;4974344;28;20051;-84
2022/08/23 03:55:52;;;;;;;15.27;11.18;;;;;;;;;;4974076;28;20066;-84
2022/08/23 03:58:20;;;;;;;15.82;12.95;;;;;;;;;;4973652;28;20500;-84
2022/08/23 04:00:46;;;;;;;8.82;7.22;;;;;;;;;;5006071;28;20061;-84
2022/08/23 04:03:12;;;;;;;9.20;6.78;;;;;;;;;;4974127;28;20039;-84
2022/08/23 04:05:38;;;;;;;10.75;8.32;;;;;;;;;;4974803;28;20097;-84
2022/08/23 04:08:08;;;;;;;13.00;9.57;;;;;;;;;;4973097;28;20042;-84
2022/08/23 04:10:34;;;;;;;8.10;6.65;;;;;;;;;;4974314;28;20051;-84
2022/08/23 04:13:00;;;;;;;6.65;5.72;;;;;;;;;;4973475;28;20042;-84
2022/08/23 04:15:26;;;;;;;5.85;5.25;;;;;;;;;;4974543;28;20085;-84
2022/08/23 04:17:52;;;;;;;7.95;5.93;;;;;;;;;;4973609;28;20463;-84
2022/08/23 04:20:18;;;;;;;8.63;5.63;;;;;;;;;;5005472;28;20047;-84
2022/08/23 04:22:45;;;;;;;6.57;5.82;;;;;;;;;;5002566;28;20047;-84
2022/08/23 04:25:11;;;;;;;6.65;5.93;;;;;;;;;;4973827;28;20522;-84
2022/08/23 04:27:37;;;;;;;8.15;6.70;;;;;;;;;;4973970;28;20039;-84
2022/08/23 04:30:03;;;;;;;6.88;6.18;;;;;;;;;;4973800;28;20488;-84
2022/08/23 04:32:29;;;;;;;9.63;6.00;;;;;;;;;;4973849;28;20422;-84
2022/08/23 04:34:56;;;;;;;11.20;6.78;;;;;;;;;;4973712;28;20500;-84
2022/08/23 04:37:22;;;;;;;13.07;9.05;;;;;;;;;;4972884;28;20051;-84
2022/08/23 04:42:33;;;;;;;9.10;7.70;;;;;;;;;;4972844;28;20039;-84
2022/08/23 04:45:00;;;;;;;8.27;7.43;;;;;;;;;;4973761;28;20416;-84
2022/08/23 04:47:26;;;;;;;10.43;8.68;;;;;;;;;;4972359;28;20117;-84
2022/08/23 04:49:52;;;;;;;7.35;6.13;;;;;;;;;;5003628;28;20058;-84
2022/08/23 04:52:18;;;;;;;11.27;8.43;;;;;;;;;;5003788;28;20093;-84
2022/08/23 04:54:45;;;;;;;20.38;14.82;;;;;;;;;;4972599;28;20391;-84
2022/08/23 04:57:14;;;;;;;23.08;16.92;;;;;;;;;;5004442;28;20133;-84
2022/08/23 04:59:40;;;;;;;20.88;16.52;;;;;;;;;;5005143;28;20047;-84
2022/08/23 05:02:06;;;;;;;19.20;14.95;;;;;;;;;;4972870;28;20035;-84
2022/08/23 05:04:33;;;;;;;19.67;14.90;;;;;;;;;;4971623;28;20050;-84
2022/08/23 05:06:59;;;;;;;20.05;14.73;;;;;;;;;;4971278;28;20043;-84
2022/08/23 05:09:25;;;;;;;18.38;14.77;;;;;;;;;;4972817;28;20050;-85
2022/08/23 05:11:52;;;;;;;20.27;14.98;;;;;;;;;;5001615;28;20043;-84
2022/08/23 05:14:18;;;;;;;18.92;15.18;;;;;;;;;;5004623;28;20057;-84
2022/08/23 05:16:44;;;;;;;18.20;15.55;;;;;;;;;;4973228;28;20102;-84
2022/08/23 05:19:10;;;;;;;20.00;16.00;;;;;;;;;;4973128;28;20047;-84
2022/08/23 05:21:36;;;;;;;17.48;15.27;;;;;;;;;;4972924;28;20399;-84
2022/08/23 05:24:02;;;;;;;19.88;14.55;;;;;;;;;;4972041;28;20109;-84
2022/08/23 05:26:28;;;;;;;20.13;15.60;;;;;;;;;;4973299;28;20404;-84
2022/08/23 05:28:54;;;;;;;20.52;15.63;;;;;;;;;;5019852;28;20064;-84
2022/08/23 05:31:25;;;;;;;22.98;15.95;;;;;;;;;;5004823;28;20046;-85
2022/08/23 05:33:51;;;;;;;25.48;18.15;;;;;;;;;;4972625;28;20134;-84
2022/08/23 05:36:18;;;;;;;24.83;16.90;;;;;;;;;;5003290;28;20034;-83
2022/08/23 05:38:45;;;;;;;22.00;16.95;;;;;;;;;;4970976;28;20511;-83
2022/08/23 05:41:12;;;;;;;22.10;16.60;;;;;;;;;;4972053;28;20051;-84
2022/08/23 05:43:38;;;;;;;21.45;16.08;;;;;;;;;;4972619;28;20034;-84
2022/08/23 05:46:10;;;;;;;19.05;16.15;;;;;;;;;;4972703;28;20050;-84
2022/08/23 05:48:37;;;;;;;21.35;16.10;;;;;;;;;;4972113;28;20062;-84
2022/08/23 05:51:17;;;;;;;17.85;15.20;;;;;;;;;;4970259;28;20492;-83
2022/08/23 05:53:43;;;;;;;18.85;15.73;;;;;;;;;;5003257;28;20054;-83
2022/08/23 05:56:09;;;;;;;19.02;15.68;;;;;;;;;;5004006;28;20138;-84
2022/08/23 05:58:35;;;;;;;19.17;15.10;;;;;;;;;;4972295;28;20039;-84
2022/08/23 06:01:01;;;;;;;20.40;14.52;;;;;;;;;;4972497;28;20085;-84
2022/08/23 06:03:27;;;;;;;16.77;14.27;;;;;;;;;;4972402;28;20105;-86
2022/08/23 06:05:57;;;;;;;16.83;13.70;;;;;;;;;;4971156;28;20039;-84
2022/08/23 06:08:23;;;;;;;18.92;14.95;;;;;;;;;;4971812;28;20049;-84
2022/08/23 06:10:49;;;;;;;18.95;14.45;;;;;;;;;;5001599;28;20054;-84
2022/08/23 06:13:15;;;;;;;18.02;14.60;;;;;;;;;;5003533;28;20451;-84
2022/08/23 06:15:44;;;;;;;19.73;15.40;;;;;;;;;;4972498;28;20078;-83
2022/08/23 06:18:13;;;;;;;18.80;14.50;;;;;;;;;;4971382;28;20077;-83
2022/08/23 06:20:39;;;;;;;18.95;15.02;;;;;;;;;;4972036;28;20403;-84
2022/08/23 06:23:06;;;;;;;18.52;15.55;;;;;;;;;;4971397;28;20054;-84
2022/08/23 06:25:35;;;;;;;18.45;14.95;;;;;;;;;;4971427;28;20404;-83
2022/08/23 06:28:01;;;;;;;17.27;14.80;;;;;;;;;;4971563;28;20054;-86
2022/08/23 06:30:27;;;;;;;20.08;15.00;;;;;;;;;;4972440;28;20039;-86
2022/08/23 06:32:53;;;;;;;19.80;15.65;;;;;;;;;;4970774;28;20495;-84
2022/08/23 06:35:19;;;;;;;20.25;16.08;;;;;;;;;;5002983;28;20130;-84
2022/08/23 06:37:46;;;;;;;21.13;16.08;;;;;;;;;;5003008;28;20051;-86
2022/08/23 06:40:12;;;;;;;20.67;16.80;;;;;;;;;;4970222;28;20178;-83
2022/08/23 06:42:38;;;;;;;19.05;15.88;;;;;;;;;;5002893;28;20042;-84
2022/08/23 06:45:05;;;;;;;17.65;15.77;;;;;;;;;;4971994;28;20139;-83
2022/08/23 06:47:31;;;;;;;19.58;16.05;;;;;;;;;;4971229;28;20082;-83
2022/08/23 06:49:57;;;;;;;18.52;16.30;;;;;;;;;;4967275;28;20503;-83
2022/08/23 06:52:23;;;;;;;19.38;15.38;;;;;;;;;;5003228;28;20043;-83
2022/08/23 06:54:50;;;;;;;18.25;16.33;;;;;;;;;;4975340;28;20054;-83
2022/08/23 06:57:16;;;;;;;18.10;15.85;;;;;;;;;;4980066;28;20068;-83
2022/08/23 06:59:42;;;;;;;18.25;14.85;;;;;;;;;;5006149;28;20053;-83
2022/08/23 07:02:09;;;;;;;17.25;15.43;;;;;;;;;;4975540;28;20085;-84
2022/08/23 07:04:37;;;;;;;20.50;15.50;;;;;;;;;;4975581;28;20117;-83
2022/08/23 07:07:04;;;;;;;17.45;14.80;;;;;;;;;;4975702;28;20058;-84
2022/08/23 07:09:30;;;;;;;15.88;13.80;;;;;;;;;;5007077;28;20511;-83
2022/08/23 07:11:57;;;;;;;15.85;13.30;;;;;;;;;;5006209;28;20047;-83
2022/08/23 07:14:23;;;;;;;14.85;12.82;;;;;;;;;;4975417;28;20136;-83
2022/08/23 07:16:51;;;;;;;15.18;12.95;;;;;;;;;;4974934;28;20496;-84
2022/08/23 07:19:18;;;;;;;15.57;12.25;;;;;;;;;;4975284;28;20416;-83
2022/08/23 07:21:44;;;;;;;14.25;12.50;;;;;;;;;;5006856;28;20051;-83
2022/08/23 07:24:12;;;;;;;13.65;11.52;;;;;;;;;;4989899;28;20078;-83
2022/08/23 07:26:38;;;;;;;13.75;12.25;;;;;;;;;;4973563;28;20076;-84
2022/08/23 07:29:08;;;;;;;12.35;11.02;;;;;;;;;;4975211;28;20054;-84
2022/08/23 07:31:35;;;;;;;15.15;10.95;;;;;;;;;;4975123;28;20049;-83
2022/08/23 07:34:02;;;;;;;15.63;10.52;;;;;;;;;;4974905;28;20416;-84
2022/08/23 07:36:30;;;;;;;12.20;10.00;;;;;;;;;;4975276;28;20039;-83
2022/08/23 07:38:56;;;;;;;11.32;10.10;;;;;;;;;;4975055;28;20069;-84
2022/08/23 07:41:23;;;;;;;13.52;9.45;;;;;;;;;;5004754;28;20046;-84
2022/08/23 07:43:50;;;;;;;14.30;10.05;;;;;;;;;;4975134;28;20094;-84
2022/08/23 07:46:16;;;;;;;12.75;10.05;;;;;;;;;;4974265;28;20521;-84
2022/08/23 07:48:42;;;;;;;11.90;9.25;;;;;;;;;;4974895;28;20047;-84
2022/08/23 07:51:10;;;;;;;10.65;9.02;;;;;;;;;;4975217;28;20070;-84
2022/08/23 07:53:36;;;;;;;10.95;8.70;;;;;;;;;;4972100;28;20046;-85
2022/08/23 07:56:05;;;;;;;10.50;9.38;;;;;;;;;;4971280;28;20047;-84
2022/08/23 07:58:31;;;;;;;13.68;9.50;;;;;;;;;;5007924;28;20054;-84
2022/08/23 08:01:07;;;;;;;10.70;9.65;;;;;;;;;;4974019;28;20043;-84
2022/08/23 08:03:33;;;;;;;;;;;;;;;;;;4975468;28;20043;-84
2022/08/23 08:05:59;;;;;;;13.10;10.02;;;;;;;;;;4973958;28;19965;-84
2022/08/23 08:08:25;;;;;;;11.35;8.98;;;;;;;;;;5005992;28;20097;-84
2022/08/23 08:10:54;;;;;;;8.93;8.02;;;;;;;;;;5005760;28;20551;-87
2022/08/23 08:13:20;;;;;;;10.40;9.40;;;;;;;;;;4973085;28;20094;-84
2022/08/23 08:15:46;;;;;;;10.77;8.98;;;;;;;;;;5000812;28;20046;-84
2022/08/23 08:18:12;;;;;;;11.38;8.80;;;;;;;;;;4999360;28;20035;-84
2022/08/23 08:20:42;;;;;;;12.50;9.40;;;;;;;;;;4964058;28;20043;-84
2022/08/23 08:23:08;;;;;;;12.10;8.52;;;;;;;;;;5003517;28;20038;-84
2022/08/23 08:25:34;;;;;;;12.85;7.63;;;;;;;;;;5000051;28;20062;-83
2022/08/23 08:28:00;;;;;;;9.38;7.00;;;;;;;;;;5006082;28;20057;-84
2022/08/23 08:30:26;;;;;;;10.10;7.15;;;;;;;;;;4980877;28;20496;-84
2022/08/23 08:32:52;;;;;;;9.70;6.43;;;;;;;;;;5005829;28;20055;-84
2022/08/23 08:35:18;;;;;;;9.13;5.80;;;;;;;;;;4974263;28;21369;-81
2022/08/23 08:37:44;;;;;;;8.05;6.35;;;;;;;;;;4968469;28;20042;-84
2022/08/23 08:40:11;;;;;;;10.80;7.32;;;;;;;;;;4999365;28;20047;-84
2022/08/23 08:42:50;;;;;;;7.25;6.40;;;;;;;;;;4970672;28;20124;-85
2022/08/23 08:45:24;;;;;;;8.93;6.50;;;;;;;;;;4972818;28;20482;-84
2022/08/23 08:47:57;;;;;;;7.97;5.40;;;;;;;;;;4971268;28;20559;-84
2022/08/23 08:50:35;;;;;;;10.05;6.57;;;;;;;;;;5005168;28;20054;-85
2022/08/23 08:53:17;;;;;;;7.13;6.07;;;;;;;;;;4968088;28;20427;-85
2022/08/23 08:56:04;;;;;;;9.32;6.18;;;;;;;;;;4973857;28;20065;-84
2022/08/23 08:58:36;;;;;;;8.18;6.30;;;;;;;;;;4973025;28;20102;-85
2022/08/23 09:01:02;;;;;;;7.90;5.95;;;;;;;;;;4973308;28;20073;-85
2022/08/23 09:03:31;;;;;;;6.47;5.30;;;;;;;;;;4974029;28;20045;-82
2022/08/23 09:06:04;;;;;;;9.98;5.38;;;;;;;;;;5000649;28;20049;-84
2022/08/23 09:08:52;;;;;;;8.30;5.50;;;;;;;;;;4973088;28;20584;-84
2022/08/23 09:11:24;;;;;;;10.18;5.60;;;;;;;;;;5002064;28;20078;-84
2022/08/23 09:13:56;;;;;;;7.22;5.10;;;;;;;;;;4967745;28;20042;-85
2022/08/23 09:16:40;;;;;;;8.18;6.03;;;;;;;;;;4968335;28;20050;-83
2022/08/23 09:19:06;;;;;;;6.97;5.53;;;;;;;;;;5002538;28;20086;-84
2022/08/23 09:21:38;;;;;;;7.07;4.78;;;;;;;;;;5004812;28;20046;-84
2022/08/23 09:24:04;;;;;;;6.97;4.80;;;;;;;;;;5003945;28;20130;-84
2022/08/23 09:26:30;;;;;;;9.05;5.15;;;;;;;;;;4972660;28;20046;-84
2022/08/23 09:29:07;;;;;;;7.30;5.22;;;;;;;;;;4983269;28;20046;-84
2022/08/23 09:31:44;;;;;;;7.00;4.93;;;;;;;;;;4997195;28;20063;-83
2022/08/23 09:34:16;;;;;;;5.68;4.90;;;;;;;;;;5004240;28;20523;-82
2022/08/23 09:36:42;;;;;;;7.80;5.05;;;;;;;;;;5004147;28;20109;-81
2022/08/23 09:39:29;;;;;;;9.02;5.15;;;;;;;;;;5002008;28;20121;-83
2022/08/23 09:41:55;;;;;;;7.82;4.53;;;;;;;;;;5002237;28;20385;-83
2022/08/23 09:44:35;;;;;;;8.30;5.30;;;;;;;;;;5004447;28;20055;-84
2022/08/23 09:47:05;;;;;;;5.72;4.68;;;;;;;;;;4972494;28;20042;-83
2022/08/23 09:49:32;;;;;;;9.80;4.63;;;;;;;;;;4972769;28;20141;-84
2022/08/23 09:51:59;;;;;;;5.50;4.47;;;;;;;;;;4971322;28;20050;-83
2022/08/23 09:54:43;;;;;;;8.77;4.50;;;;;;;;;;4972261;28;20038;-83
2022/08/23 09:57:12;;;;;;;7.57;4.60;;;;;;;;;;4967760;28;20082;-85
2022/08/23 09:59:46;;;;;;;8.43;4.40;;;;;;;;;;4987526;28;20050;-85
2022/08/23 10:02:35;;;;;;;10.05;4.45;;;;;;;;;;4973177;28;20082;-86
2022/08/23 10:05:01;;;;;;;6.00;4.65;;;;;;;;;;4973733;28;20186;-86
2022/08/23 10:07:27;;;;;;;7.55;4.78;;;;;;;;;;4970101;28;20038;-85
2022/08/23 10:09:54;;;;;;;5.05;4.50;;;;;;;;;;4972273;28;20443;-83
2022/08/23 10:12:21;;;;;;;6.93;4.63;;;;;;;;;;4970536;28;20052;-85
2022/08/23 10:14:47;;;;;;;6.65;4.50;;;;;;;;;;4998081;28;20047;-86
2022/08/23 10:17:32;;;;;;;7.20;4.90;;;;;;;;;;4960064;28;20047;-84
2022/08/23 10:19:58;;;;;;;8.38;4.85;;;;;;;;;;4964906;28;20050;-84
2022/08/23 10:22:26;;;;;;;7.07;5.05;;;;;;;;;;4971640;28;20326;-84
2022/08/23 10:25:01;;;;;;;6.50;4.70;;;;;;;;;;4972236;28;20086;-84
2022/08/23 10:30:20;;;;;;;6.15;4.82;;;;;;;;;;4972112;28;20047;-84
2022/08/23 10:32:53;;;;;;;6.72;5.28;;;;;;;;;;4971013;28;20509;-84
2022/08/23 10:35:25;;;;;;;8.20;5.80;;;;;;;;;;4972049;28;20113;-84
2022/08/23 10:37:57;;;;;;;7.70;5.30;;;;;;;;;;4972251;28;20051;-85
2022/08/23 10:40:27;;;;;;;9.10;5.05;;;;;;;;;;4971201;28;20569;-86
2022/08/23 10:43:06;;;;;;;7.85;5.90;;;;;;;;;;4972557;28;20042;-80
2022/08/23 10:45:34;;;;;;;7.53;6.10;;;;;;;;;;5003556;28;20046;-87
2022/08/23 10:48:07;;;;;;;9.35;5.25;;;;;;;;;;4970740;28;20054;-88
2022/08/23 10:50:40;;;;;;;5.78;5.18;;;;;;;;;;4972353;28;20039;-88
2022/08/23 10:53:16;;;;;;;7.93;5.10;;;;;;;;;;4970622;28;20166;-87
2022/08/23 10:56:01;;;;;;;7.25;5.50;;;;;;;;;;4967107;28;20047;-88
2022/08/23 10:58:31;;;;;;;9.07;5.68;;;;;;;;;;4990395;28;20125;-89
2022/08/23 11:00:59;;;;;;;6.45;5.13;;;;;;;;;;4971819;28;20050;-87
2022/08/23 11:03:41;;;;;;;7.90;5.53;;;;;;;;;;4968956;28;20062;-87
2022/08/23 11:06:27;;;;;;;9.30;5.07;;;;;;;;;;4951390;29;20055;-87
2022/08/23 11:09:02;;;;;;;8.55;5.55;;;;;;;;;;4967835;28;20031;-87
2022/08/23 11:11:39;;;;;;;10.70;6.35;;;;;;;;;;5002079;28;20085;-87
2022/08/23 11:14:06;;;;;;;6.95;6.00;;;;;;;;;;4970248;28;20123;-87
2022/08/23 11:16:34;;;;;;;8.30;5.70;;;;;;;;;;4969533;28;20046;-87
2022/08/23 11:19:00;;;;;;;8.20;5.78;;;;;;;;;;5000433;28;20051;-86
2022/08/23 11:21:32;;;;;;;6.25;5.63;;;;;;;;;;4970837;28;20046;-87
2022/08/23 11:23:58;;;;;;;8.05;5.63;;;;;;;;;;4969924;28;20050;-87
2022/08/23 11:26:28;;;;;;;6.05;4.97;;;;;;;;;;4970595;28;20043;-87
2022/08/23 11:29:00;;;;;;;11.32;5.28;;;;;;;;;;4970733;28;20351;-87
2022/08/23 11:31:29;;;;;;;8.57;4.72;;;;;;;;;;4971035;28;20047;-87
2022/08/23 11:34:00;;;;;;;10.38;4.60;;;;;;;;;;5001887;28;20047;-87
2022/08/23 11:36:27;;;;;;;5.72;3.88;;;;;;;;;;4970925;28;20046;-87
2022/08/23 11:38:54;;;;;;;6.65;3.78;;;;;;;;;;4970706;28;20129;-87
2022/08/23 11:41:56;;;;;;;8.43;3.90;;;;;;;;;;4972659;28;20053;-87
2022/08/23 11:44:23;;;;;;;8.63;4.03;;;;;;;;;;5009843;28;20431;-87
2022/08/23 11:46:49;;;;;;;5.70;3.65;;;;;;;;;;5008855;28;20499;-90
2022/08/23 11:49:28;;;;;;;6.00;3.47;;;;;;;;;;5010521;28;20569;-89
2022/08/23 11:52:00;;;;;;;6.63;3.30;;;;;;;;;;5010285;28;20173;-89
2022/08/23 11:54:26;;;;;;;5.95;3.80;;;;;;;;;;4994037;28;20052;-89
2022/08/23 11:57:13;;;;;;;5.25;3.40;;;;;;;;;;4994314;28;20054;-89
2022/08/23 12:00:06;;;;;;;5.93;3.42;;;;;;;;;;5010865;28;20066;-89
2022/08/23 12:02:38;;;;;;;6.95;3.92;;;;;;;;;;4999318;28;20053;-88
2022/08/23 12:05:19;;;;;;;6.53;3.70;;;;;;;;;;5007353;28;20046;-88
2022/08/23 12:07:45;;;;;;;4.80;3.40;;;;;;;;;;4991975;28;20054;-88
2022/08/23 12:10:14;;;;;;;6.93;3.40;;;;;;;;;;4995150;28;20049;-89
2022/08/23 12:12:41;;;;;;;6.63;3.50;;;;;;;;;;4992921;28;20062;-88
2022/08/23 12:15:09;;;;;;;6.95;3.33;;;;;;;;;;5009933;28;20046;-88
2022/08/23 12:17:35;;;;;;;5.50;3.75;;;;;;;;;;5002946;28;20051;-88
2022/08/23 12:20:06;;;;;;;7.88;3.60;;;;;;;;;;5003219;28;20047;-89
2022/08/23 12:22:50;;;;;;;4.72;3.33;;;;;;;;;;4970721;28;20129;-89
2022/08/23 12:25:18;;;;;;;5.45;3.33;;;;;;;;;;4966989;28;20097;-88
2022/08/23 12:27:54;;;;;;;9.63;3.50;;;;;;;;;;4966347;28;20082;-88
2022/08/23 12:30:25;;;;;;;6.60;3.78;;;;;;;;;;4964252;28;20054;-88
2022/08/23 12:32:57;;;;;;;5.28;3.30;;;;;;;;;;4961925;28;20097;-88
2022/08/23 12:35:23;;;;;;;4.20;3.10;;;;;;;;;;4965547;28;20077;-88
2022/08/23 12:38:07;;;;;;;6.38;3.90;;;;;;;;;;4963195;28;20049;-88
2022/08/23 12:40:36;;;;;;;8.88;3.63;;;;;;;;;;4999664;28;20039;-88
2022/08/23 12:43:08;;;;;;;9.43;7.22;;;;;;;;;;4955059;28;20051;-88
2022/08/23 12:45:40;;;;;;;13.63;9.50;;;;;;;;;;4971498;28;20038;-88
2022/08/23 12:48:08;;;;;;;11.77;8.75;;;;;;;;;;5004283;28;20145;-88
2022/08/23 12:50:35;;;;;;;14.30;8.95;;;;;;;;;;4972865;28;20047;-88
2022/08/23 12:53:06;;;;;;;12.63;8.68;;;;;;;;;;4971697;28;20101;-88
2022/08/23 12:55:34;;;;;;;11.85;6.80;;;;;;;;;;4959575;28;20146;-88
2022/08/23 12:58:00;;;;;;;9.73;7.07;;;;;;;;;;4952878;29;20054;-88
2022/08/23 13:00:32;;;;;;;11.05;7.97;;;;;;;;;;4984617;28;20054;-88
2022/08/23 13:03:15;;;;;;;10.02;7.40;;;;;;;;;;4951441;29;20071;-88
2022/08/23 13:05:44;;;;;;;12.88;6.95;;;;;;;;;;4953627;28;20051;-88
2022/08/23 13:08:13;;;;;;;13.02;10.13;;;;;;;;;;4952105;29;20078;-88
2022/08/23 13:10:41;;;;;;;12.88;10.63;;;;;;;;;;4984412;28;20047;-92
2022/08/23 13:13:09;;;;;;;14.60;11.55;;;;;;;;;;4984899;28;20047;-88
2022/08/23 13:15:59;;;;;;;14.45;12.68;;;;;;;;;;4982377;28;20043;-88
2022/08/23 13:18:26;;;;;;;14.48;11.15;;;;;;;;;;4954625;28;20048;-88
2022/08/23 13:21:10;;;;;;;17.88;11.50;;;;;;;;;;4952356;28;20063;-88
2022/08/23 13:23:36;;;;;;;13.30;10.40;;;;;;;;;;4953453;28;20078;-88
2022/08/23 13:26:21;;;;;;;14.88;10.70;;;;;;;;;;4950945;29;20106;-88
2022/08/23 13:29:07;;;;;;;13.30;9.93;;;;;;;;;;4952099;28;20050;-88
2022/08/23 13:31:52;;;;;;;13.32;9.18;;;;;;;;;;4952673;28;20043;-88
2022/08/23 13:34:30;;;;;;;12.90;8.65;;;;;;;;;;4965796;28;20047;-89
2022/08/23 13:36:58;;;;;;;11.05;8.95;;;;;;;;;;4952379;28;20039;-89
2022/08/23 13:39:24;;;;;;;20.27;10.95;;;;;;;;;;4950641;28;20058;-89
2022/08/23 13:41:50;;;;;;;14.60;10.63;;;;;;;;;;4967542;28;20038;-89
2022/08/23 13:44:18;;;;;;;14.27;10.95;;;;;;;;;;4950957;28;20369;-89
2022/08/23 13:46:45;;;;;;;15.70;11.10;;;;;;;;;;4953021;28;20053;-89
2022/08/23 13:49:16;;;;;;;14.30;11.55;;;;;;;;;;4966140;28;20048;-89
2022/08/23 13:51:58;;;;;;;14.27;11.80;;;;;;;;;;4951943;28;20051;-89
2022/08/23 13:54:24;;;;;;;15.15;11.27;;;;;;;;;;4947630;28;20083;-89
2022/08/23 13:56:51;;;;;;;17.15;13.40;;;;;;;;;;4945580;28;20047;-89
2022/08/23 13:59:28;;;;;;;14.05;12.30;;;;;;;;;;4961686;28;20050;-90
2022/08/23 14:01:54;;;;;;;16.05;14.18;;;;;;;;;;4952105;28;20519;-90
2022/08/23 14:04:20;;;;;;;16.45;13.85;;;;;;;;;;4984667;28;20054;-90
2022/08/23 14:06:47;;;;;;;16.40;13.88;;;;;;;;;;4952618;28;20039;-90
2022/08/23 14:09:14;;;;;;;17.55;14.85;;;;;;;;;;4981459;28;20555;-89
2022/08/23 14:11:40;;;;;;;17.13;14.60;;;;;;;;;;4983004;28;20489;-89
2022/08/23 14:14:06;;;;;;;16.98;15.20;;;;;;;;;;4981859;28;20051;-91
2022/08/23 14:16:37;;;;;;;17.58;15.30;;;;;;;;;;4952051;29;20139;-89
2022/08/23 14:19:03;;;;;;;19.52;15.77;;;;;;;;;;4985272;28;20381;-89
2022/08/23 14:21:29;;;;;;;20.27;16.70;;;;;;;;;;4982871;28;20488;-89
2022/08/23 14:23:55;;;;;;;16.88;15.18;;;;;;;;;;4980270;28;20052;-89
2022/08/23 14:26:22;;;;;;;19.83;15.23;;;;;;;;;;4946307;28;20508;-89
2022/08/23 14:28:48;;;;;;;17.50;14.20;;;;;;;;;;4933845;28;20489;-88
2022/08/23 14:31:14;;;;;;;16.85;14.30;;;;;;;;;;4933845;28;20046;-89
2022/08/23 14:33:40;;;;;;;17.77;14.57;;;;;;;;;;4929955;28;20047;-89
2022/08/23 14:36:06;;;;;;;16.00;13.80;;;;;;;;;;4951105;28;20111;-89
2022/08/23 14:38:33;;;;;;;17.20;14.00;;;;;;;;;;4948387;28;20043;-89
2022/08/23 14:41:02;;;;;;;16.10;14.43;;;;;;;;;;4982293;28;20126;-89
2022/08/23 14:43:28;;;;;;;20.20;14.65;;;;;;;;;;4953409;28;20075;-95
2022/08/23 14:45:55;;;;;;;18.92;14.70;;;;;;;;;;4949846;29;20066;-83
2022/08/23 14:48:22;;;;;;;18.92;13.90;;;;;;;;;;4951184;28;20059;-88
2022/08/23 14:50:48;;;;;;;16.35;13.80;;;;;;;;;;4952198;28;20063;-88
2022/08/23 14:53:15;;;;;;;14.95;13.48;;;;;;;;;;4950208;28;20404;-88